createdAt,value
2022-12-18T00:00:48.984Z,1.48
2022-12-18T00:03:16.315Z,1.47
2022-12-18T00:05:50.302Z,1.48
2022-12-18T00:08:17.041Z,1.49
2022-12-18T00:10:44.054Z,1.52
2022-12-18T00:13:11.022Z,1.59
2022-12-18T00:15:38.310Z,1.54
2022-12-18T00:18:05.561Z,1.49
2022-12-18T00:20:36.345Z,1.52
2022-12-18T00:23:02.782Z,1.53
2022-12-18T00:25:29.345Z,1.53
2022-12-18T00:27:55.979Z,1.52
2022-12-18T00:30:22.481Z,1.57
2022-12-18T00:32:48.951Z,1.61
2022-12-18T00:35:15.450Z,1.56
2022-12-18T00:37:41.901Z,1.53
2022-12-18T00:40:08.699Z,1.53
2022-12-18T00:42:54.890Z,1.56
2022-12-18T00:45:21.409Z,1.56
2022-12-18T00:47:47.893Z,1.60
2022-12-18T00:50:14.405Z,1.67
2022-12-18T00:52:40.997Z,1.61
2022-12-18T00:55:07.873Z,1.56
2022-12-18T00:57:34.446Z,1.54
2022-12-18T01:00:00.945Z,1.57
2022-12-18T01:02:27.781Z,1.60
2022-12-18T01:04:54.435Z,1.58
2022-12-18T01:07:20.914Z,1.61
2022-12-18T01:09:47.390Z,1.66
2022-12-18T01:12:13.895Z,1.63
2022-12-18T01:14:40.353Z,1.63
2022-12-18T01:17:07.543Z,1.63
2022-12-18T01:19:34.715Z,1.60
2022-12-18T01:22:01.189Z,1.59
2022-12-18T01:24:27.877Z,1.61
2022-12-18T01:26:54.357Z,1.62
2022-12-18T01:29:20.799Z,1.67
2022-12-18T01:31:47.340Z,1.65
2022-12-18T01:34:13.781Z,1.65
2022-12-18T01:36:40.218Z,1.66
2022-12-18T01:39:08.786Z,1.67
2022-12-18T01:41:54.524Z,1.64
2022-12-18T01:44:39.441Z,1.65
2022-12-18T01:47:06.677Z,1.66
2022-12-18T01:49:33.124Z,1.79
2022-12-18T01:51:59.599Z,1.74
2022-12-18T01:54:26.043Z,1.70
2022-12-18T01:56:52.486Z,1.69
2022-12-18T01:59:19.038Z,1.70
2022-12-18T02:01:47.912Z,1.68
2022-12-18T02:04:24.935Z,1.69
2022-12-18T02:06:55.151Z,1.63
2022-12-18T02:09:31.130Z,1.66
2022-12-18T02:12:01.593Z,1.69
2022-12-18T02:14:55.006Z,1.69
2022-12-18T02:17:23.902Z,1.71
2022-12-18T02:19:50.649Z,1.69
2022-12-18T02:22:35.919Z,1.65
2022-12-18T02:25:13.977Z,1.64
2022-12-18T02:27:42.238Z,1.66
2022-12-18T02:30:09.358Z,1.69
2022-12-18T02:32:38.586Z,1.74
2022-12-18T02:35:06.653Z,1.74
2022-12-18T02:37:35.280Z,1.70
2022-12-18T02:40:03.368Z,1.71
2022-12-18T02:42:30.009Z,1.74
2022-12-18T02:44:56.721Z,1.83
2022-12-18T02:47:25.129Z,1.81
2022-12-18T02:49:58.121Z,1.77
2022-12-18T02:52:36.596Z,1.64
2022-12-18T02:55:15.219Z,1.42
2022-12-18T02:57:46.949Z,1.37
2022-12-18T03:00:24.079Z,1.43
2022-12-18T03:03:00.105Z,1.47
2022-12-18T03:05:37.206Z,1.32
2022-12-18T03:08:09.505Z,1.31
2022-12-18T03:10:39.470Z,1.45
2022-12-18T03:13:08.510Z,1.53
2022-12-18T03:15:38.510Z,1.42
2022-12-18T03:18:08.777Z,1.39
2022-12-18T03:20:36.140Z,1.32
2022-12-18T03:23:09.297Z,1.33
2022-12-18T03:25:38.371Z,1.33
2022-12-18T03:28:06.981Z,1.34
2022-12-18T03:30:34.729Z,1.50
2022-12-18T03:33:08.893Z,1.43
2022-12-18T03:35:38.574Z,1.38
2022-12-18T03:38:05.145Z,1.35
2022-12-18T03:40:36.341Z,1.31
2022-12-18T03:43:17.797Z,1.31
2022-12-18T03:45:48.483Z,1.35
2022-12-18T03:48:20.777Z,1.49
2022-12-18T03:50:47.596Z,1.38
2022-12-18T03:53:26.197Z,1.36
2022-12-18T03:55:52.957Z,1.34
2022-12-18T03:58:21.991Z,1.33
2022-12-18T04:00:50.833Z,1.33
2022-12-18T04:03:22.598Z,1.41
2022-12-18T04:05:53.548Z,1.49
2022-12-18T04:08:20.734Z,1.40
2022-12-18T04:10:47.198Z,1.36
2022-12-18T04:13:13.739Z,1.37
2022-12-18T04:15:40.891Z,1.37
2022-12-18T04:18:07.437Z,1.39
2022-12-18T04:20:34.710Z,1.49
2022-12-18T04:23:01.164Z,1.43
2022-12-18T04:25:29.622Z,1.40
2022-12-18T04:27:57.958Z,1.38
2022-12-18T04:30:24.414Z,1.37
2022-12-18T04:32:53.089Z,1.39
2022-12-18T04:35:21.554Z,1.49
2022-12-18T04:37:48.012Z,1.53
2022-12-18T04:40:14.492Z,1.45
2022-12-18T04:42:41.659Z,1.38
2022-12-18T04:45:08.869Z,1.40
2022-12-18T04:47:35.324Z,1.37
2022-12-18T04:50:01.838Z,1.50
2022-12-18T04:52:28.805Z,1.52
2022-12-18T04:54:55.240Z,1.46
2022-12-18T04:57:21.773Z,1.44
2022-12-18T04:59:48.235Z,1.42
2022-12-18T05:02:14.865Z,1.41
2022-12-18T05:04:41.500Z,1.48
2022-12-18T05:07:08.028Z,1.52
2022-12-18T05:09:34.813Z,1.47
2022-12-18T05:12:01.322Z,1.46
2022-12-18T05:14:30.214Z,1.43
2022-12-18T05:17:01.014Z,1.43
2022-12-18T05:19:27.889Z,1.49
2022-12-18T05:21:54.411Z,1.58
2022-12-18T05:24:20.869Z,1.51
2022-12-18T05:26:47.469Z,1.46
2022-12-18T05:29:14.263Z,1.48
2022-12-18T05:31:41.003Z,1.45
2022-12-18T05:34:09.632Z,1.49
2022-12-18T05:36:37.191Z,1.63
2022-12-18T05:39:03.669Z,1.54
2022-12-18T05:41:30.993Z,1.52
2022-12-18T05:43:57.512Z,1.52
2022-12-18T05:46:25.373Z,1.49
2022-12-18T05:48:52.145Z,1.49
2022-12-18T05:51:20.115Z,1.69
2022-12-18T05:53:47.019Z,1.63
2022-12-18T05:56:15.754Z,1.58
2022-12-18T05:58:42.536Z,1.54
2022-12-18T06:01:09.178Z,1.55
2022-12-18T06:03:35.655Z,1.54
2022-12-18T06:06:02.927Z,1.67
2022-12-18T06:08:29.575Z,1.65
2022-12-18T06:10:56.081Z,1.62
2022-12-18T06:13:24.787Z,1.61
2022-12-18T06:15:51.329Z,1.60
2022-12-18T06:18:18.503Z,1.59
2022-12-18T06:20:44.979Z,1.67
2022-12-18T06:23:11.547Z,1.71
2022-12-18T06:25:38.653Z,1.67
2022-12-18T06:28:05.174Z,1.64
2022-12-18T06:30:36.973Z,1.61
2022-12-18T06:33:05.421Z,1.64
2022-12-18T06:35:34.838Z,1.76
2022-12-18T06:38:02.466Z,1.78
2022-12-18T06:40:30.869Z,1.74
2022-12-18T06:42:59.523Z,1.69
2022-12-18T06:45:26.062Z,1.65
2022-12-18T06:47:52.609Z,1.66
2022-12-18T06:50:19.053Z,1.76
2022-12-18T06:52:45.530Z,1.78
2022-12-18T06:55:12.461Z,1.70
2022-12-18T06:57:39.477Z,1.69
2022-12-18T07:00:06.869Z,1.64
2022-12-18T07:02:33.500Z,1.65
2022-12-18T07:05:00.155Z,1.77
2022-12-18T07:07:26.648Z,1.75
2022-12-18T07:09:53.101Z,1.71
2022-12-18T07:12:19.714Z,1.69
2022-12-18T07:14:46.154Z,1.69
2022-12-18T07:17:12.736Z,1.69
2022-12-18T07:19:39.954Z,1.81
2022-12-18T07:22:06.426Z,1.76
2022-12-18T07:24:33.878Z,1.74
2022-12-18T07:27:00.805Z,1.73
2022-12-18T07:29:29.502Z,1.71
2022-12-18T07:31:56.040Z,1.79
2022-12-18T07:34:22.555Z,1.96
2022-12-18T07:36:49.019Z,1.86
2022-12-18T07:39:15.545Z,1.86
2022-12-18T07:41:47.496Z,1.86
2022-12-18T07:44:14.177Z,1.87
2022-12-18T07:46:40.768Z,1.91
2022-12-18T07:49:07.281Z,1.94
2022-12-18T07:51:33.797Z,1.91
2022-12-18T07:54:00.231Z,1.86
2022-12-18T07:56:28.658Z,1.85
2022-12-18T07:58:56.270Z,1.87
2022-12-18T08:01:22.871Z,2.00
2022-12-18T08:03:50.067Z,1.99
2022-12-18T08:06:19.085Z,1.93
2022-12-18T08:08:45.567Z,1.91
2022-12-18T08:11:12.001Z,1.91
2022-12-18T08:13:38.907Z,1.86
2022-12-18T08:16:06.914Z,1.94
2022-12-18T08:18:34.854Z,1.97
2022-12-18T08:21:16.019Z,1.93
2022-12-18T08:23:43.716Z,1.90
2022-12-18T08:26:11.706Z,1.89
2022-12-18T08:28:38.545Z,1.89
2022-12-18T08:31:05.187Z,1.94
2022-12-18T08:33:32.174Z,1.95
2022-12-18T08:36:02.158Z,1.91
2022-12-18T08:38:29.005Z,1.89
2022-12-18T08:41:15.814Z,1.90
2022-12-18T08:44:01.614Z,1.87
2022-12-18T08:46:32.438Z,1.93
2022-12-18T08:48:59.045Z,1.94
2022-12-18T08:51:25.539Z,1.89
2022-12-18T08:53:51.985Z,1.86
2022-12-18T08:56:18.470Z,1.86
2022-12-18T08:58:45.320Z,1.86
2022-12-18T09:01:12.983Z,1.90
2022-12-18T09:03:40.183Z,1.92
2022-12-18T09:06:07.256Z,1.89
2022-12-18T09:08:35.367Z,1.86
2022-12-18T09:11:01.943Z,1.87
2022-12-18T09:13:30.235Z,1.90
2022-12-18T09:15:57.136Z,1.99
2022-12-18T09:18:25.618Z,2.08
2022-12-18T09:20:54.014Z,2.04
2022-12-18T09:23:21.504Z,2.03
2022-12-18T09:25:48.616Z,2.04
2022-12-18T09:28:17.541Z,2.01
2022-12-18T09:30:46.240Z,2.03
2022-12-18T09:33:12.948Z,2.10
2022-12-18T09:35:39.899Z,2.04
2022-12-18T09:38:06.865Z,1.99
2022-12-18T09:40:40.930Z,1.96
2022-12-18T09:43:08.445Z,1.93
2022-12-18T09:45:47.178Z,1.94
2022-12-18T09:48:33.741Z,2.02
2022-12-18T09:51:04.282Z,2.04
2022-12-18T09:53:34.149Z,2.00
2022-12-18T09:56:01.575Z,1.98
2022-12-18T09:58:39.480Z,2.03
2022-12-18T10:01:25.110Z,2.04
2022-12-18T10:03:52.933Z,2.11
2022-12-18T10:06:31.237Z,2.15
2022-12-18T10:08:58.082Z,2.16
2022-12-18T10:11:50.409Z,2.16
2022-12-18T10:14:23.091Z,2.17
2022-12-18T10:16:53.018Z,2.22
2022-12-18T10:19:29.820Z,2.31
2022-12-18T10:22:11.730Z,2.30
2022-12-18T10:24:56.968Z,2.33
2022-12-18T10:27:26.810Z,2.40
2022-12-18T10:29:55.905Z,2.42
2022-12-18T10:32:23.907Z,2.46
2022-12-18T10:34:59.834Z,2.49
2022-12-18T10:37:28.591Z,2.60
2022-12-18T10:40:09.422Z,2.59
2022-12-18T10:42:36.229Z,2.57
2022-12-18T10:45:05.362Z,2.60
2022-12-18T10:47:33.786Z,2.65
2022-12-18T10:50:00.270Z,2.68
2022-12-18T10:52:27.170Z,2.74
2022-12-18T10:54:59.748Z,2.69
2022-12-18T10:57:32.075Z,2.70
2022-12-18T11:00:00.009Z,2.76
2022-12-18T11:02:28.812Z,2.76
2022-12-18T11:04:55.511Z,2.79
2022-12-18T11:07:22.046Z,2.78
2022-12-18T11:10:07.437Z,2.88
2022-12-18T11:12:33.963Z,2.80
2022-12-18T11:15:01.094Z,2.83
2022-12-18T11:17:27.726Z,2.83
2022-12-18T11:19:59.646Z,2.79
2022-12-18T11:22:33.581Z,2.84
2022-12-18T11:25:32.728Z,2.89
2022-12-18T11:28:00.003Z,2.85
2022-12-18T11:30:37.467Z,2.88
2022-12-18T11:33:20.691Z,2.88
2022-12-18T11:35:53.369Z,2.87
2022-12-18T11:38:25.220Z,2.85
2022-12-18T11:40:57.394Z,2.91
2022-12-18T11:43:23.836Z,2.94
2022-12-18T11:45:50.270Z,2.91
2022-12-18T11:48:19.703Z,2.90
2022-12-18T11:50:46.115Z,2.89
2022-12-18T11:53:13.085Z,2.88
2022-12-18T11:55:52.126Z,2.98
2022-12-18T11:58:22.472Z,3.02
2022-12-18T12:00:58.787Z,2.95
2022-12-18T12:03:40.161Z,2.94
2022-12-18T12:06:29.542Z,2.93
2022-12-18T12:09:04.239Z,3.04
2022-12-18T12:11:33.737Z,3.02
2022-12-18T12:14:02.859Z,2.93
2022-12-18T12:16:29.346Z,2.95
2022-12-18T12:19:03.958Z,2.98
2022-12-18T12:21:33.400Z,3.09
2022-12-18T12:24:18.772Z,3.16
2022-12-18T12:26:57.704Z,3.20
2022-12-18T12:29:44.746Z,2.86
2022-12-18T12:32:25.376Z,2.59
2022-12-18T12:35:11.247Z,2.54
2022-12-18T12:37:52.012Z,2.76
2022-12-18T12:40:50.245Z,2.72
2022-12-18T12:43:18.286Z,2.49
2022-12-18T12:45:51.802Z,2.56
2022-12-18T12:48:21.146Z,2.72
2022-12-18T12:50:49.202Z,2.78
2022-12-18T12:53:22.604Z,2.50
2022-12-18T12:55:49.844Z,2.41
2022-12-18T12:58:24.546Z,2.53
2022-12-18T13:00:58.134Z,2.27
2022-12-18T13:03:43.417Z,2.21
2022-12-18T13:06:17.946Z,2.35
2022-12-18T13:08:58.474Z,2.17
2022-12-18T13:11:59.343Z,2.12
2022-12-18T13:14:30.169Z,2.27
2022-12-18T13:17:17.968Z,2.13
2022-12-18T13:19:45.122Z,1.99
2022-12-18T13:22:24.926Z,2.12
2022-12-18T13:24:51.850Z,2.14
2022-12-18T13:27:37.454Z,2.00
2022-12-18T13:30:24.019Z,2.03
2022-12-18T13:33:10.456Z,2.02
2022-12-18T13:35:41.400Z,1.89
2022-12-18T13:38:21.893Z,1.80
2022-12-18T13:40:48.384Z,1.91
2022-12-18T13:43:20.635Z,1.72
2022-12-18T13:46:05.373Z,1.71
2022-12-18T13:48:34.754Z,1.92
2022-12-18T13:51:04.351Z,1.73
2022-12-18T13:53:34.190Z,1.60
2022-12-18T13:56:00.866Z,1.60
2022-12-18T13:58:27.371Z,1.78
2022-12-18T14:00:53.881Z,1.71
2022-12-18T14:03:22.848Z,1.62
2022-12-18T14:05:54.514Z,1.74
2022-12-18T14:08:21.577Z,1.75
2022-12-18T14:10:50.193Z,1.62
2022-12-18T14:13:20.898Z,1.53
2022-12-18T14:15:49.017Z,1.66
2022-12-18T14:18:17.028Z,1.65
2022-12-18T14:20:52.120Z,1.52
2022-12-18T14:23:48.378Z,1.56
2022-12-18T14:26:20.917Z,1.63
2022-12-18T14:28:47.782Z,1.50
2022-12-18T14:31:24.849Z,1.38
2022-12-18T14:33:51.802Z,1.54
2022-12-18T14:36:23.416Z,1.53
2022-12-18T14:38:54.839Z,1.37
2022-12-18T14:41:22.078Z,1.34
2022-12-18T14:43:49.806Z,1.55
2022-12-18T14:46:35.124Z,1.33
2022-12-18T14:49:03.483Z,1.18
2022-12-18T14:51:31.793Z,1.28
2022-12-18T14:54:02.974Z,1.30
2022-12-18T14:56:31.255Z,1.13
2022-12-18T14:58:59.289Z,1.11
2022-12-18T15:01:39.138Z,1.24
2022-12-18T15:04:21.091Z,1.21
2022-12-18T15:06:48.222Z,0.99
2022-12-18T15:09:27.452Z,0.94
2022-12-18T15:11:58.727Z,1.19
2022-12-18T15:14:31.095Z,1.00
2022-12-18T15:16:59.936Z,0.98
2022-12-18T15:19:37.690Z,1.06
2022-12-18T15:22:06.608Z,1.09
2022-12-18T15:24:33.713Z,0.98
2022-12-18T15:27:01.054Z,1.00
2022-12-18T15:29:28.068Z,1.17
2022-12-18T15:32:19.060Z,1.14
2022-12-18T15:34:45.583Z,1.06
2022-12-18T15:37:12.187Z,1.01
2022-12-18T15:39:38.699Z,1.15
2022-12-18T15:42:23.905Z,1.02
2022-12-18T15:44:50.822Z,0.86
2022-12-18T15:47:17.375Z,0.78
2022-12-18T15:49:43.890Z,1.06
2022-12-18T15:52:12.936Z,0.88
2022-12-18T15:54:57.926Z,0.81
2022-12-18T15:57:24.431Z,0.88
2022-12-18T15:59:51.747Z,0.87
2022-12-18T16:02:19.307Z,0.78
2022-12-18T16:04:46.926Z,0.71
2022-12-18T16:07:15.113Z,0.86
2022-12-18T16:09:44.265Z,0.79
2022-12-18T16:12:19.162Z,0.60
2022-12-18T16:14:46.057Z,0.61
2022-12-18T16:17:13.492Z,0.74
2022-12-18T16:19:41.085Z,0.80
2022-12-18T16:22:17.323Z,0.64
2022-12-18T16:24:44.457Z,0.55
2022-12-18T16:27:11.026Z,0.68
2022-12-18T16:29:37.650Z,0.68
2022-12-18T16:32:04.158Z,0.59
2022-12-18T16:34:35.241Z,0.55
2022-12-18T16:37:05.845Z,0.70
2022-12-18T16:39:34.285Z,0.58
2022-12-18T16:42:01.973Z,0.43
2022-12-18T16:44:32.317Z,0.40
2022-12-18T16:47:02.739Z,0.52
2022-12-18T16:49:29.702Z,0.44
2022-12-18T16:51:56.246Z,0.34
2022-12-18T16:54:22.964Z,0.31
2022-12-18T16:56:50.974Z,0.51
2022-12-18T16:59:17.484Z,0.32
2022-12-18T17:01:44.653Z,0.23
2022-12-18T17:04:11.328Z,0.07
2022-12-18T17:06:42.231Z,0.05
2022-12-18T17:09:11.187Z,0.01
2022-12-18T17:11:37.886Z,-0.07
2022-12-18T17:14:08.766Z,-0.06
2022-12-18T17:16:35.848Z,-0.18
2022-12-18T17:19:04.020Z,-0.16
2022-12-18T17:21:30.641Z,-0.10
2022-12-18T17:23:59.656Z,-0.13
2022-12-18T17:26:26.202Z,-0.04
2022-12-18T17:28:52.771Z,0.04
2022-12-18T17:31:20.570Z,-0.12
2022-12-18T17:33:48.900Z,-0.19
2022-12-18T17:36:15.880Z,-0.29
2022-12-18T17:38:42.603Z,-0.27
2022-12-18T17:41:09.996Z,-0.25
2022-12-18T17:43:37.165Z,-0.32
2022-12-18T17:46:04.346Z,-0.14
2022-12-18T17:48:33.643Z,-0.02
2022-12-18T17:51:04.146Z,-0.23
2022-12-18T17:53:31.286Z,-0.35
2022-12-18T17:55:58.376Z,-0.48
2022-12-18T17:58:25.262Z,-0.57
2022-12-18T18:00:51.818Z,-0.64
2022-12-18T18:03:18.475Z,-0.61
2022-12-18T18:05:45.258Z,-0.40
2022-12-18T18:08:11.914Z,-0.44
2022-12-18T18:10:39.458Z,-0.63
2022-12-18T18:13:42.065Z,-0.75
2022-12-18T18:16:12.995Z,-0.82
2022-12-18T18:18:41.563Z,-0.83
2022-12-18T18:21:08.873Z,-0.63
2022-12-18T18:23:35.998Z,-0.81
2022-12-18T18:26:06.756Z,-0.92
2022-12-18T18:28:33.871Z,-0.95
2022-12-18T18:31:07.742Z,-1.01
2022-12-18T18:33:34.283Z,-1.00
2022-12-18T18:36:00.735Z,-0.80
2022-12-18T18:38:28.388Z,-0.97
2022-12-18T18:40:58.383Z,-1.04
2022-12-18T18:43:24.869Z,-1.16
2022-12-18T18:45:55.156Z,-1.17
2022-12-18T18:48:21.631Z,-1.00
2022-12-18T18:51:21.757Z,-1.02
2022-12-18T18:53:49.262Z,-1.14
2022-12-18T18:56:45.436Z,-1.18
2022-12-18T18:59:03.675Z,-1.21
2022-12-18T19:01:30.314Z,-1.07
2022-12-18T19:03:56.875Z,-1.04
2022-12-18T19:06:25.105Z,-1.25
2022-12-18T19:08:52.788Z,-1.33
2022-12-18T19:11:38.187Z,-1.34
2022-12-18T19:14:05.867Z,-1.34
2022-12-18T19:16:33.625Z,-1.16
2022-12-18T19:19:02.227Z,-1.24
2022-12-18T19:21:31.152Z,-1.35
2022-12-18T19:24:01.054Z,-1.48
2022-12-18T19:26:28.665Z,-1.58
2022-12-18T19:29:00.456Z,-1.46
2022-12-18T19:31:31.798Z,-1.37
2022-12-18T19:34:02.219Z,-1.49
2022-12-18T19:36:29.716Z,-1.58
2022-12-18T19:38:57.378Z,-1.54
2022-12-18T19:41:25.643Z,-1.43
2022-12-18T19:43:55.726Z,-1.35
2022-12-18T19:46:23.815Z,-1.49
2022-12-18T19:48:50.764Z,-1.54
2022-12-18T19:51:18.770Z,-1.63
2022-12-18T19:53:45.545Z,-1.57
2022-12-18T19:56:13.447Z,-1.40
2022-12-18T19:58:40.753Z,-1.44
2022-12-18T20:01:08.172Z,-1.51
2022-12-18T20:03:36.389Z,-1.59
2022-12-18T20:06:09.066Z,-1.53
2022-12-18T20:08:35.648Z,-1.46
2022-12-18T20:11:02.113Z,-1.31
2022-12-18T20:13:28.588Z,-1.50
2022-12-18T20:15:56.832Z,-1.63
2022-12-18T20:18:23.310Z,-1.57
2022-12-18T20:20:54.447Z,-1.56
2022-12-18T20:23:23.217Z,-1.36
2022-12-18T20:25:52.355Z,-1.51
2022-12-18T20:28:19.074Z,-1.63
2022-12-18T20:30:45.848Z,-1.72
2022-12-18T20:33:12.409Z,-1.79
2022-12-18T20:35:38.902Z,-1.65
2022-12-18T20:38:06.575Z,-1.62
2022-12-18T20:40:33.259Z,-1.82
2022-12-18T20:43:00.124Z,-1.87
2022-12-18T20:45:28.422Z,-1.84
2022-12-18T20:47:57.462Z,-1.91
2022-12-18T20:50:23.996Z,-1.71
2022-12-18T20:52:50.999Z,-1.84
2022-12-18T20:55:17.495Z,-1.91
2022-12-18T20:57:43.994Z,-1.94
2022-12-18T21:00:11.270Z,-2.06
2022-12-18T21:02:39.107Z,-1.87
2022-12-18T21:05:05.834Z,-1.92
2022-12-18T21:07:32.297Z,-2.00
2022-12-18T21:09:58.771Z,-2.02
2022-12-18T21:12:40.310Z,-2.09
2022-12-18T21:15:14.152Z,-2.08
2022-12-18T21:17:44.996Z,-1.94
2022-12-18T21:20:17.513Z,-2.09
2022-12-18T21:22:47.305Z,-2.12
2022-12-18T21:25:13.880Z,-2.17
2022-12-18T21:27:40.317Z,-2.21
2022-12-18T21:30:07.162Z,-1.99
2022-12-18T21:32:33.779Z,-2.07
2022-12-18T21:35:00.529Z,-2.23
2022-12-18T21:37:27.098Z,-2.24
2022-12-18T21:39:53.540Z,-2.26
2022-12-18T21:42:38.942Z,-2.19
2022-12-18T21:45:05.539Z,-2.09
2022-12-18T21:47:32.036Z,-2.34
2022-12-18T21:50:00.670Z,-2.42
2022-12-18T21:52:32.241Z,-2.39
2022-12-18T21:55:04.764Z,-2.42
2022-12-18T21:57:34.716Z,-2.25
2022-12-18T22:00:02.218Z,-2.29
2022-12-18T22:02:29.234Z,-2.42
2022-12-18T22:04:55.922Z,-2.47
2022-12-18T22:07:23.073Z,-2.49
2022-12-18T22:09:49.756Z,-2.45
2022-12-18T22:12:35.495Z,-2.25
2022-12-18T22:15:04.412Z,-2.48
2022-12-18T22:17:31.098Z,-2.46
2022-12-18T22:19:58.370Z,-2.50
2022-12-18T22:22:24.912Z,-2.58
2022-12-18T22:24:52.103Z,-2.39
2022-12-18T22:27:18.584Z,-2.41
2022-12-18T22:30:03.679Z,-2.49
2022-12-18T22:32:31.708Z,-2.57
2022-12-18T22:35:04.521Z,-2.64
2022-12-18T22:37:33.842Z,-2.61
2022-12-18T22:40:03.092Z,-2.65
2022-12-18T22:42:30.863Z,-2.83
2022-12-18T22:44:57.330Z,-2.93
2022-12-18T22:47:29.768Z,-3.10
2022-12-18T22:49:57.477Z,-3.16
2022-12-18T22:52:25.963Z,-3.03
2022-12-18T22:54:53.130Z,-3.17
2022-12-18T22:57:20.348Z,-3.17
2022-12-18T22:59:46.785Z,-3.14
2022-12-18T23:02:13.371Z,-3.21
2022-12-18T23:04:40.566Z,-3.16
2022-12-18T23:07:07.151Z,-3.03
2022-12-18T23:09:33.723Z,-3.10
2022-12-18T23:12:00.363Z,-3.24
2022-12-18T23:14:27.638Z,-3.27
2022-12-18T23:16:56.043Z,-3.35
2022-12-18T23:19:23.965Z,-3.42
2022-12-18T23:21:50.893Z,-3.27
2022-12-18T23:24:18.030Z,-3.44
2022-12-18T23:26:44.494Z,-3.61
2022-12-18T23:29:12.692Z,-3.80
2022-12-18T23:31:39.781Z,-3.87
2022-12-18T23:34:06.867Z,-3.97
2022-12-18T23:36:45.284Z,-3.73
2022-12-18T23:39:28.662Z,-3.89
2022-12-18T23:41:55.917Z,-4.17
2022-12-18T23:44:22.481Z,-4.03
2022-12-18T23:46:49.086Z,-4.08
2022-12-18T23:49:15.717Z,-4.11
2022-12-18T23:51:42.221Z,-4.09
2022-12-18T23:54:12.023Z,-3.97
2022-12-18T23:56:40.598Z,-3.89
2022-12-18T23:59:07.178Z,-3.69
